sensor_id;sensor_type;location;lat;lon;timestamp;pressure;altitude;pressure_sealevel;temperature;humidity
48563;BME280;34981;49.104;11.396;2022-07-05T00:00:24;95831.53;;;18.92;47.96
48563;BME280;34981;49.104;11.396;2022-07-05T00:02:52;95828.31;;;18.90;48.23
48563;BME280;34981;49.104;11.396;2022-07-05T00:05:19;95834.25;;;18.92;48.16
48563;BME280;34981;49.104;11.396;2022-07-05T00:07:46;95828.31;;;18.90;48.14
48563;BME280;34981;49.104;11.396;2022-07-05T00:10:13;95821.47;;;18.84;48.98
48563;BME280;34981;49.104;11.396;2022-07-05T00:12:40;95826.75;;;18.72;48.77
48563;BME280;34981;49.104;11.396;2022-07-05T00:15:08;95828.38;;;18.73;48.60
48563;BME280;34981;49.104;11.396;2022-07-05T00:17:35;95828.53;;;18.76;48.43
48563;BME280;34981;49.104;11.396;2022-07-05T00:20:02;95837.03;;;18.75;47.97
48563;BME280;34981;49.104;11.396;2022-07-05T00:22:30;95831.09;;;18.73;48.01
48563;BME280;34981;49.104;11.396;2022-07-05T00:24:57;95828.38;;;18.73;48.10
48563;BME280;34981;49.104;11.396;2022-07-05T00:27:24;95834.94;;;18.72;48.47
48563;BME280;34981;49.104;11.396;2022-07-05T00:29:51;95827.56;;;18.72;48.88
48563;BME280;34981;49.104;11.396;2022-07-05T00:32:18;95826.75;;;18.72;48.84
48563;BME280;34981;49.104;11.396;2022-07-05T00:34:45;95828.03;;;18.74;48.86
48563;BME280;34981;49.104;11.396;2022-07-05T00:37:13;95825.47;;;18.78;48.75
48563;BME280;34981;49.104;11.396;2022-07-05T00:39:40;95827.06;;;18.79;48.62
48563;BME280;34981;49.104;11.396;2022-07-05T00:42:08;95822.28;;;18.76;48.64
48563;BME280;34981;49.104;11.396;2022-07-05T00:44:37;95816.03;;;18.75;48.89
48563;BME280;34981;49.104;11.396;2022-07-05T00:47:05;95822.59;;;18.74;49.16
48563;BME280;34981;49.104;11.396;2022-07-05T00:49:33;95821.47;;;18.75;49.69
48563;BME280;34981;49.104;11.396;2022-07-05T00:52:00;95825.31;;;18.74;49.13
48563;BME280;34981;49.104;11.396;2022-07-05T00:54:46;95832.56;;;18.61;49.37
48563;BME280;34981;49.104;11.396;2022-07-05T00:57:14;95827.41;;;18.51;49.30
48563;BME280;34981;49.104;11.396;2022-07-05T00:59:42;95821.97;;;18.43;49.64
48563;BME280;34981;49.104;11.396;2022-07-05T01:02:09;95815.28;;;18.40;49.65
48563;BME280;34981;49.104;11.396;2022-07-05T01:04:36;95817.34;;;18.35;49.95
48563;BME280;34981;49.104;11.396;2022-07-05T01:07:03;95815.44;;;18.35;50.17
48563;BME280;34981;49.104;11.396;2022-07-05T01:09:32;95814.16;;;18.33;49.53
48563;BME280;34981;49.104;11.396;2022-07-05T01:12:00;95816.91;;;18.24;50.22
48563;BME280;34981;49.104;11.396;2022-07-05T01:14:27;95822.03;;;18.17;50.31
48563;BME280;34981;49.104;11.396;2022-07-05T01:16:55;95815.94;;;18.03;50.69
48563;BME280;34981;49.104;11.396;2022-07-05T01:19:22;95811.31;;;17.95;50.59
48563;BME280;34981;49.104;11.396;2022-07-05T01:21:49;95814.66;;;17.92;50.95
48563;BME280;34981;49.104;11.396;2022-07-05T01:24:17;95808.41;;;17.91;51.34
48563;BME280;34981;49.104;11.396;2022-07-05T01:26:45;95804.56;;;17.92;51.36
48563;BME280;34981;49.104;11.396;2022-07-05T01:29:13;95808.41;;;17.91;51.24
48563;BME280;34981;49.104;11.396;2022-07-05T01:31:40;95810.97;;;17.87;51.74
48563;BME280;34981;49.104;11.396;2022-07-05T01:34:08;95814.81;;;17.86;51.31
48563;BME280;34981;49.104;11.396;2022-07-05T01:36:35;95813.84;;;17.82;51.23
48563;BME280;34981;49.104;11.396;2022-07-05T01:39:05;95815.09;;;17.76;51.09
48563;BME280;34981;49.104;11.396;2022-07-05T01:41:32;95813.84;;;17.74;51.10
48563;BME280;34981;49.104;11.396;2022-07-05T01:44:00;95820.56;;;17.68;51.62
48563;BME280;34981;49.104;11.396;2022-07-05T01:46:29;95813.66;;;17.70;52.51
48563;BME280;34981;49.104;11.396;2022-07-05T01:49:00;95812.56;;;17.71;51.92
48563;BME280;34981;49.104;11.396;2022-07-05T01:51:31;95815.13;;;17.68;51.57
48563;BME280;34981;49.104;11.396;2022-07-05T01:54:00;95810.13;;;17.61;52.16
48563;BME280;34981;49.104;11.396;2022-07-05T01:56:27;95822.59;;;17.62;52.69
48563;BME280;34981;49.104;11.396;2022-07-05T01:58:55;95817.97;;;17.63;52.23
48563;BME280;34981;49.104;11.396;2022-07-05T02:01:33;95822.13;;;17.60;52.38
48563;BME280;34981;49.104;11.396;2022-07-05T02:04:02;95820.81;;;17.58;52.56
48563;BME280;34981;49.104;11.396;2022-07-05T02:06:30;95821.13;;;17.56;53.45
48563;BME280;34981;49.104;11.396;2022-07-05T02:08:57;95827.22;;;17.53;52.77
48563;BME280;34981;49.104;11.396;2022-07-05T02:11:25;95828.94;;;17.49;52.68
48563;BME280;34981;49.104;11.396;2022-07-05T02:13:52;95819.66;;;17.41;52.89
48563;BME280;34981;49.104;11.396;2022-07-05T02:16:23;95817.56;;;17.30;53.06
48563;BME280;34981;49.104;11.396;2022-07-05T02:18:50;95811.44;;;17.16;53.34
48563;BME280;34981;49.104;11.396;2022-07-05T02:21:18;95809.00;;;17.05;53.64
48563;BME280;34981;49.104;11.396;2022-07-05T02:23:49;95826.25;;;17.01;54.04
48563;BME280;34981;49.104;11.396;2022-07-05T02:26:17;95827.66;;;16.98;54.17
48563;BME280;34981;49.104;11.396;2022-07-05T02:28:45;95822.38;;;16.93;54.58
48563;BME280;34981;49.104;11.396;2022-07-05T02:31:13;95829.53;;;16.89;54.91
48563;BME280;34981;49.104;11.396;2022-07-05T02:33:41;95835.41;;;16.83;54.95
48563;BME280;34981;49.104;11.396;2022-07-05T02:36:11;95834.75;;;16.77;54.74
48563;BME280;34981;49.104;11.396;2022-07-05T02:38:39;95839.19;;;16.73;54.79
48563;BME280;34981;49.104;11.396;2022-07-05T02:41:09;95841.53;;;16.66;55.28
48563;BME280;34981;49.104;11.396;2022-07-05T02:43:38;95850.91;;;16.60;55.10
48563;BME280;34981;49.104;11.396;2022-07-05T02:46:08;95846.53;;;16.50;55.92
48563;BME280;34981;49.104;11.396;2022-07-05T02:48:36;95852.72;;;16.42;56.39
48563;BME280;34981;49.104;11.396;2022-07-05T02:51:06;95846.91;;;16.35;56.47
48563;BME280;34981;49.104;11.396;2022-07-05T02:53:34;95859.31;;;16.27;57.31
48563;BME280;34981;49.104;11.396;2022-07-05T02:56:03;95857.50;;;16.23;57.33
48563;BME280;34981;49.104;11.396;2022-07-05T02:58:31;95855.13;;;16.21;57.11
48563;BME280;34981;49.104;11.396;2022-07-05T03:00:59;95849.50;;;16.18;56.86
48563;BME280;34981;49.104;11.396;2022-07-05T03:03:30;95852.50;;;16.16;57.86
48563;BME280;34981;49.104;11.396;2022-07-05T03:05:58;95855.34;;;16.11;58.46
48563;BME280;34981;49.104;11.396;2022-07-05T03:08:26;95860.09;;;16.06;58.64
48563;BME280;34981;49.104;11.396;2022-07-05T03:10:55;95866.31;;;16.06;58.47
48563;BME280;34981;49.104;11.396;2022-07-05T03:13:23;95861.69;;;16.07;58.72
48563;BME280;34981;49.104;11.396;2022-07-05T03:15:50;95865.69;;;16.09;58.62
48563;BME280;34981;49.104;11.396;2022-07-05T03:18:21;95871.63;;;16.11;58.88
48563;BME280;34981;49.104;11.396;2022-07-05T03:20:48;95866.19;;;16.11;58.93
48563;BME280;34981;49.104;11.396;2022-07-05T03:23:18;95857.38;;;16.06;58.99
48563;BME280;34981;49.104;11.396;2022-07-05T03:25:51;95864.06;;;16.08;58.96
48563;BME280;34981;49.104;11.396;2022-07-05T03:28:19;95859.66;;;16.12;59.01
48563;BME280;34981;49.104;11.396;2022-07-05T03:30:48;95867.81;;;16.12;58.90
48563;BME280;34981;49.104;11.396;2022-07-05T03:33:16;95871.00;;;16.14;58.57
48563;BME280;34981;49.104;11.396;2022-07-05T03:35:45;95870.59;;;16.07;58.90
48563;BME280;34981;49.104;11.396;2022-07-05T03:38:14;95871.75;;;16.06;58.95
48563;BME280;34981;49.104;11.396;2022-07-05T03:40:43;95873.16;;;16.04;59.44
48563;BME280;34981;49.104;11.396;2022-07-05T03:43:10;95872.03;;;16.05;59.72
48563;BME280;34981;49.104;11.396;2022-07-05T03:45:38;95876.66;;;16.04;59.07
48563;BME280;34981;49.104;11.396;2022-07-05T03:48:07;95883.19;;;16.03;59.10
48563;BME280;34981;49.104;11.396;2022-07-05T03:50:55;95885.09;;;16.03;59.52
48563;BME280;34981;49.104;11.396;2022-07-05T03:53:22;95888.00;;;16.06;59.46
48563;BME280;34981;49.104;11.396;2022-07-05T03:55:50;95894.13;;;16.12;59.06
48563;BME280;34981;49.104;11.396;2022-07-05T03:58:17;95885.69;;;16.13;59.42
48563;BME280;34981;49.104;11.396;2022-07-05T04:00:45;95891.09;;;16.13;59.81
48563;BME280;34981;49.104;11.396;2022-07-05T04:03:18;95889.66;;;16.16;59.67
48563;BME280;34981;49.104;11.396;2022-07-05T04:05:45;95884.44;;;16.19;60.61
48563;BME280;34981;49.104;11.396;2022-07-05T04:08:13;95884.41;;;16.33;59.87
48563;BME280;34981;49.104;11.396;2022-07-05T04:10:44;95887.19;;;16.42;60.07
48563;BME280;34981;49.104;11.396;2022-07-05T04:13:14;95887.69;;;16.44;60.04
48563;BME280;34981;49.104;11.396;2022-07-05T04:15:42;95890.25;;;16.49;59.94
48563;BME280;34981;49.104;11.396;2022-07-05T04:18:10;95899.88;;;16.55;60.02
48563;BME280;34981;49.104;11.396;2022-07-05T04:20:41;95888.31;;;16.63;60.05
48563;BME280;34981;49.104;11.396;2022-07-05T04:23:10;95889.84;;;16.78;60.16
48563;BME280;34981;49.104;11.396;2022-07-05T04:25:38;95893.03;;;17.02;58.64
48563;BME280;34981;49.104;11.396;2022-07-05T04:28:23;95889.31;;;17.29;57.75
48563;BME280;34981;49.104;11.396;2022-07-05T04:30:53;95896.91;;;17.49;58.02
48563;BME280;34981;49.104;11.396;2022-07-05T04:33:23;95886.91;;;17.75;56.95
48563;BME280;34981;49.104;11.396;2022-07-05T04:35:54;95888.88;;;17.92;56.69
48563;BME280;34981;49.104;11.396;2022-07-05T04:38:21;95894.16;;;18.06;55.95
48563;BME280;34981;49.104;11.396;2022-07-05T04:40:49;95890.69;;;18.22;55.44
48563;BME280;34981;49.104;11.396;2022-07-05T04:43:18;95906.22;;;18.39;55.07
48563;BME280;34981;49.104;11.396;2022-07-05T04:45:45;95891.81;;;18.56;54.20
48563;BME280;34981;49.104;11.396;2022-07-05T04:48:12;95900.47;;;18.75;53.33
48563;BME280;34981;49.104;11.396;2022-07-05T04:50:40;95901.56;;;18.91;52.61
48563;BME280;34981;49.104;11.396;2022-07-05T04:53:07;95907.13;;;19.12;51.92
48563;BME280;34981;49.104;11.396;2022-07-05T04:55:34;95917.13;;;19.29;51.44
48563;BME280;34981;49.104;11.396;2022-07-05T04:58:02;95911.34;;;19.48;51.04
48563;BME280;34981;49.104;11.396;2022-07-05T05:00:29;95909.72;;;19.55;51.03
48563;BME280;34981;49.104;11.396;2022-07-05T05:02:56;95913.78;;;19.78;50.75
48563;BME280;34981;49.104;11.396;2022-07-05T05:05:23;95921.72;;;19.92;50.23
48563;BME280;34981;49.104;11.396;2022-07-05T05:07:50;95913.94;;;20.03;49.23
48563;BME280;34981;49.104;11.396;2022-07-05T05:10:17;95922.50;;;20.22;49.37
48563;BME280;34981;49.104;11.396;2022-07-05T05:12:44;95923.88;;;20.37;48.39
48563;BME280;34981;49.104;11.396;2022-07-05T05:15:12;95929.72;;;20.47;48.17
48563;BME280;34981;49.104;11.396;2022-07-05T05:17:39;95929.25;;;20.66;46.99
48563;BME280;34981;49.104;11.396;2022-07-05T05:20:11;95924.31;;;20.80;46.78
48563;BME280;34981;49.104;11.396;2022-07-05T05:22:38;95928.22;;;20.91;46.92
48563;BME280;34981;49.104;11.396;2022-07-05T05:25:06;95926.72;;;21.15;46.64
48563;BME280;34981;49.104;11.396;2022-07-05T05:27:34;95927.72;;;21.43;45.95
48563;BME280;34981;49.104;11.396;2022-07-05T05:30:01;95936.19;;;21.62;45.61
48563;BME280;34981;49.104;11.396;2022-07-05T05:32:28;95933.25;;;22.04;44.87
48563;BME280;34981;49.104;11.396;2022-07-05T05:34:55;95929.91;;;22.35;44.77
48563;BME280;34981;49.104;11.396;2022-07-05T05:37:22;95929.75;;;22.56;43.60
48563;BME280;34981;49.104;11.396;2022-07-05T05:39:49;95931.19;;;22.65;43.29
48563;BME280;34981;49.104;11.396;2022-07-05T05:42:16;95924.81;;;22.73;43.05
48563;BME280;34981;49.104;11.396;2022-07-05T05:44:43;95936.47;;;22.98;43.45
48563;BME280;34981;49.104;11.396;2022-07-05T05:47:10;95933.19;;;23.20;42.48
48563;BME280;34981;49.104;11.396;2022-07-05T05:49:42;95939.69;;;23.44;42.32
48563;BME280;34981;49.104;11.396;2022-07-05T05:52:10;95946.00;;;23.60;41.57
48563;BME280;34981;49.104;11.396;2022-07-05T05:54:37;95935.41;;;23.58;41.21
48563;BME280;34981;49.104;11.396;2022-07-05T05:57:04;95930.63;;;23.71;40.90
48563;BME280;34981;49.104;11.396;2022-07-05T05:59:31;95937.06;;;23.94;41.09
48563;BME280;34981;49.104;11.396;2022-07-05T06:01:59;95928.91;;;23.82;40.89
48563;BME280;34981;49.104;11.396;2022-07-05T06:04:26;95931.84;;;23.89;40.55
48563;BME280;34981;49.104;11.396;2022-07-05T06:06:53;95938.22;;;23.93;40.56
48563;BME280;34981;49.104;11.396;2022-07-05T06:09:20;95940.78;;;24.02;40.28
48563;BME280;34981;49.104;11.396;2022-07-05T06:11:47;95948.06;;;24.10;40.58
48563;BME280;34981;49.104;11.396;2022-07-05T06:14:14;95936.78;;;24.31;40.57
48563;BME280;34981;49.104;11.396;2022-07-05T06:16:41;95941.78;;;24.25;39.62
48563;BME280;34981;49.104;11.396;2022-07-05T06:19:09;95939.25;;;24.36;39.41
48563;BME280;34981;49.104;11.396;2022-07-05T06:21:36;95938.81;;;24.34;39.29
48563;BME280;34981;49.104;11.396;2022-07-05T06:24:03;95942.66;;;24.49;39.58
48563;BME280;34981;49.104;11.396;2022-07-05T06:26:30;95945.66;;;24.59;39.91
48563;BME280;34981;49.104;11.396;2022-07-05T06:28:57;95943.72;;;24.60;39.48
48563;BME280;34981;49.104;11.396;2022-07-05T06:31:24;95947.06;;;24.69;39.71
48563;BME280;34981;49.104;11.396;2022-07-05T06:33:51;95948.34;;;24.91;39.97
48563;BME280;34981;49.104;11.396;2022-07-05T06:36:18;95949.78;;;25.04;39.42
48563;BME280;34981;49.104;11.396;2022-07-05T06:38:46;95954.09;;;25.24;38.82
48563;BME280;34981;49.104;11.396;2022-07-05T06:41:13;95958.06;;;25.46;38.52
48563;BME280;34981;49.104;11.396;2022-07-05T06:43:40;95961.59;;;25.66;38.19
48563;BME280;34981;49.104;11.396;2022-07-05T06:46:08;95950.69;;;25.73;38.06
48563;BME280;34981;49.104;11.396;2022-07-05T06:48:36;95956.41;;;25.83;38.36
48563;BME280;34981;49.104;11.396;2022-07-05T06:51:03;95959.19;;;26.10;38.78
48563;BME280;34981;49.104;11.396;2022-07-05T06:53:30;95953.25;;;26.30;37.55
48563;BME280;34981;49.104;11.396;2022-07-05T06:55:57;95949.72;;;26.30;38.26
48563;BME280;34981;49.104;11.396;2022-07-05T06:58:24;95951.88;;;26.44;37.52
48563;BME280;34981;49.104;11.396;2022-07-05T07:00:51;95958.09;;;26.37;37.50
48563;BME280;34981;49.104;11.396;2022-07-05T07:03:38;95957.63;;;26.61;36.97
48563;BME280;34981;49.104;11.396;2022-07-05T07:06:25;95961.28;;;26.95;36.45
48563;BME280;34981;49.104;11.396;2022-07-05T07:08:53;95962.28;;;27.13;36.05
48563;BME280;34981;49.104;11.396;2022-07-05T07:11:37;95969.66;;;27.36;36.20
48563;BME280;34981;49.104;11.396;2022-07-05T07:14:04;95967.31;;;27.38;34.97
48563;BME280;34981;49.104;11.396;2022-07-05T07:16:32;95965.72;;;27.37;35.36
48563;BME280;34981;49.104;11.396;2022-07-05T07:18:59;95966.56;;;27.41;35.22
48563;BME280;34981;49.104;11.396;2022-07-05T07:21:37;95967.22;;;27.61;35.51
48563;BME280;34981;49.104;11.396;2022-07-05T07:24:05;95970.19;;;27.85;34.83
48563;BME280;34981;49.104;11.396;2022-07-05T07:26:32;95974.31;;;28.06;33.98
48563;BME280;34981;49.104;11.396;2022-07-05T07:29:20;95973.72;;;28.23;34.17
48563;BME280;34981;49.104;11.396;2022-07-05T07:31:47;95968.97;;;28.20;34.50
48563;BME280;34981;49.104;11.396;2022-07-05T07:34:14;95971.31;;;28.18;34.08
48563;BME280;34981;49.104;11.396;2022-07-05T07:36:41;95976.66;;;28.00;34.55
48563;BME280;34981;49.104;11.396;2022-07-05T07:39:09;95972.13;;;28.22;33.34
48563;BME280;34981;49.104;11.396;2022-07-05T07:41:36;95977.72;;;28.29;33.11
48563;BME280;34981;49.104;11.396;2022-07-05T07:44:03;95975.56;;;28.56;33.73
48563;BME280;34981;49.104;11.396;2022-07-05T07:46:30;95975.31;;;28.27;33.77
48563;BME280;34981;49.104;11.396;2022-07-05T07:48:58;95976.16;;;28.35;33.32
48563;BME280;34981;49.104;11.396;2022-07-05T07:51:25;95974.72;;;28.52;33.33
48563;BME280;34981;49.104;11.396;2022-07-05T07:53:52;95969.38;;;28.77;32.12
48563;BME280;34981;49.104;11.396;2022-07-05T07:56:28;95968.25;;;28.85;32.04
48563;BME280;34981;49.104;11.396;2022-07-05T07:58:55;95976.72;;;28.55;32.49
48563;BME280;34981;49.104;11.396;2022-07-05T08:01:23;95982.97;;;28.45;32.76
48563;BME280;34981;49.104;11.396;2022-07-05T08:03:50;95983.59;;;28.79;32.96
48563;BME280;34981;49.104;11.396;2022-07-05T08:06:17;95977.09;;;28.53;32.65
48563;BME280;34981;49.104;11.396;2022-07-05T08:08:45;95979.59;;;28.69;32.65
48563;BME280;34981;49.104;11.396;2022-07-05T08:11:12;95977.34;;;28.85;31.26
48563;BME280;34981;49.104;11.396;2022-07-05T08:13:39;95979.03;;;29.08;31.13
48563;BME280;34981;49.104;11.396;2022-07-05T08:16:08;95972.75;;;29.18;30.03
48563;BME280;34981;49.104;11.396;2022-07-05T08:18:35;95980.66;;;29.19;30.31
48563;BME280;34981;49.104;11.396;2022-07-05T08:21:21;95975.44;;;29.00;29.31
48563;BME280;34981;49.104;11.396;2022-07-05T08:23:58;95970.97;;;28.81;30.73
48563;BME280;34981;49.104;11.396;2022-07-05T08:26:26;95971.78;;;28.82;30.91
48563;BME280;34981;49.104;11.396;2022-07-05T08:28:53;95972.69;;;29.03;30.20
48563;BME280;34981;49.104;11.396;2022-07-05T08:31:35;95972.94;;;28.77;29.59
48563;BME280;34981;49.104;11.396;2022-07-05T08:34:03;95966.84;;;28.57;30.00
48563;BME280;34981;49.104;11.396;2022-07-05T08:36:30;95965.47;;;28.26;30.36
48563;BME280;34981;49.104;11.396;2022-07-05T08:38:57;95972.88;;;28.15;30.65
48563;BME280;34981;49.104;11.396;2022-07-05T08:41:24;95965.78;;;28.21;29.43
48563;BME280;34981;49.104;11.396;2022-07-05T08:43:52;95963.66;;;28.04;28.93
48563;BME280;34981;49.104;11.396;2022-07-05T08:46:19;95968.28;;;27.89;28.20
48563;BME280;34981;49.104;11.396;2022-07-05T08:48:48;95977.25;;;27.79;28.38
48563;BME280;34981;49.104;11.396;2022-07-05T08:51:18;95970.31;;;28.00;29.04
48563;BME280;34981;49.104;11.396;2022-07-05T08:53:51;95967.50;;;28.37;28.24
48563;BME280;34981;49.104;11.396;2022-07-05T08:56:19;95967.13;;;28.38;28.47
48563;BME280;34981;49.104;11.396;2022-07-05T08:59:09;95969.78;;;28.27;27.47
48563;BME280;34981;49.104;11.396;2022-07-05T09:01:36;95971.31;;;28.18;27.74
48563;BME280;34981;49.104;11.396;2022-07-05T09:04:04;95971.97;;;28.08;27.40
48563;BME280;34981;49.104;11.396;2022-07-05T09:06:32;95977.72;;;27.88;27.81
48563;BME280;34981;49.104;11.396;2022-07-05T09:09:02;95975.78;;;27.93;28.10
48563;BME280;34981;49.104;11.396;2022-07-05T09:11:36;95965.06;;;28.28;26.95
48563;BME280;34981;49.104;11.396;2022-07-05T09:14:05;95972.59;;;28.35;27.38
48563;BME280;34981;49.104;11.396;2022-07-05T09:16:53;95971.38;;;28.28;26.76
48563;BME280;34981;49.104;11.396;2022-07-05T09:19:20;95973.56;;;28.09;26.73
48563;BME280;34981;49.104;11.396;2022-07-05T09:21:47;95965.94;;;27.95;27.19
48563;BME280;34981;49.104;11.396;2022-07-05T09:24:14;95965.00;;;28.17;27.34
48563;BME280;34981;49.104;11.396;2022-07-05T09:26:43;95965.78;;;28.18;27.05
48563;BME280;34981;49.104;11.396;2022-07-05T09:29:13;95974.38;;;28.09;27.45
48563;BME280;34981;49.104;11.396;2022-07-05T09:32:00;95971.84;;;27.94;26.62
48563;BME280;34981;49.104;11.396;2022-07-05T09:34:27;95972.88;;;27.75;26.90
48563;BME280;34981;49.104;11.396;2022-07-05T09:36:57;95976.34;;;27.68;27.39
48563;BME280;34981;49.104;11.396;2022-07-05T09:44:51;95969.56;;;28.03;27.93
48563;BME280;34981;49.104;11.396;2022-07-05T09:47:20;95971.97;;;28.08;27.58
48563;BME280;34981;49.104;11.396;2022-07-05T09:52:39;95982.16;;;27.97;26.37
48563;BME280;34981;49.104;11.396;2022-07-05T09:55:10;95980.50;;;27.88;26.73
48563;BME280;34981;49.104;11.396;2022-07-05T09:57:38;95979.69;;;27.88;26.74
48563;BME280;34981;49.104;11.396;2022-07-05T10:00:12;95979.13;;;27.68;27.84
48563;BME280;34981;49.104;11.396;2022-07-05T10:07:35;95971.38;;;28.25;26.42
48563;BME280;34981;49.104;11.396;2022-07-05T10:10:03;95979.97;;;28.16;26.40
48563;BME280;34981;49.104;11.396;2022-07-05T10:12:31;95986.31;;;28.17;27.34
48563;BME280;34981;49.104;11.396;2022-07-05T10:14:58;95985.63;;;28.27;26.64
48563;BME280;34981;49.104;11.396;2022-07-05T10:17:27;95976.06;;;28.21;26.50
48563;BME280;34981;49.104;11.396;2022-07-05T10:20:03;95970.63;;;28.35;26.41
48563;BME280;34981;49.104;11.396;2022-07-05T10:22:32;95971.53;;;28.50;26.20
48563;BME280;34981;49.104;11.396;2022-07-05T10:24:59;95978.84;;;28.76;26.56
48563;BME280;34981;49.104;11.396;2022-07-05T10:27:27;95985.38;;;28.50;25.51
48563;BME280;34981;49.104;11.396;2022-07-05T10:29:54;95979.03;;;28.49;25.42
48563;BME280;34981;49.104;11.396;2022-07-05T10:32:23;95977.06;;;28.46;26.11
48563;BME280;34981;49.104;11.396;2022-07-05T10:34:51;95983.97;;;28.19;26.59
48563;BME280;34981;49.104;11.396;2022-07-05T10:37:22;95978.53;;;28.33;26.78
48563;BME280;34981;49.104;11.396;2022-07-05T10:39:49;95970.78;;;28.53;26.70
48563;BME280;34981;49.104;11.396;2022-07-05T10:42:16;95981.94;;;28.67;25.85
48563;BME280;34981;49.104;11.396;2022-07-05T10:44:44;95983.94;;;28.70;25.67
48563;BME280;34981;49.104;11.396;2022-07-05T10:47:11;95973.38;;;28.83;25.72
48563;BME280;34981;49.104;11.396;2022-07-05T10:49:39;95981.72;;;28.90;25.53
48563;BME280;34981;49.104;11.396;2022-07-05T10:52:22;95973.09;;;29.09;25.60
48563;BME280;34981;49.104;11.396;2022-07-05T11:00:36;95982.66;;;29.22;25.12
48563;BME280;34981;49.104;11.396;2022-07-05T11:03:06;95976.34;;;29.32;25.01
48563;BME280;34981;49.104;11.396;2022-07-05T11:05:54;95965.59;;;29.06;24.36
48563;BME280;34981;49.104;11.396;2022-07-05T11:08:21;95971.56;;;29.19;24.48
48563;BME280;34981;49.104;11.396;2022-07-05T11:13:40;95969.50;;;29.01;24.79
48563;BME280;34981;49.104;11.396;2022-07-05T11:21:33;95960.06;;;29.13;25.62
48563;BME280;34981;49.104;11.396;2022-07-05T11:24:19;95969.63;;;29.26;24.81
48563;BME280;34981;49.104;11.396;2022-07-05T11:26:48;95964.09;;;29.33;24.60
48563;BME280;34981;49.104;11.396;2022-07-05T11:32:05;95963.94;;;28.91;24.89
48563;BME280;34981;49.104;11.396;2022-07-05T11:34:33;95962.75;;;28.92;25.00
48563;BME280;34981;49.104;11.396;2022-07-05T11:42:33;95965.66;;;28.55;25.72
48563;BME280;34981;49.104;11.396;2022-07-05T11:45:09;95959.38;;;28.61;26.96
48563;BME280;34981;49.104;11.396;2022-07-05T11:47:36;95964.13;;;28.61;25.74
48563;BME280;34981;49.104;11.396;2022-07-05T11:50:09;95954.31;;;28.71;26.30
48563;BME280;34981;49.104;11.396;2022-07-05T11:52:37;95950.84;;;28.84;25.00
48563;BME280;34981;49.104;11.396;2022-07-05T11:55:05;95949.13;;;28.65;25.08
48563;BME280;34981;49.104;11.396;2022-07-05T11:57:33;95952.53;;;28.41;25.63
48563;BME280;34981;49.104;11.396;2022-07-05T12:00:00;95944.72;;;28.57;25.05
48563;BME280;34981;49.104;11.396;2022-07-05T12:02:43;95939.75;;;28.77;24.77
48563;BME280;34981;49.104;11.396;2022-07-05T12:05:15;95937.84;;;28.92;24.90
48563;BME280;34981;49.104;11.396;2022-07-05T12:07:47;95942.13;;;28.86;25.33
48563;BME280;34981;49.104;11.396;2022-07-05T12:10:15;95938.66;;;28.99;25.28
48563;BME280;34981;49.104;11.396;2022-07-05T12:13:21;95946.97;;;29.03;24.53
48563;BME280;34981;49.104;11.396;2022-07-05T12:15:48;95935.72;;;28.71;24.16
48563;BME280;34981;49.104;11.396;2022-07-05T12:18:15;95938.44;;;28.64;24.14
48563;BME280;34981;49.104;11.396;2022-07-05T12:20:42;95932.63;;;28.76;24.36
48563;BME280;34981;49.104;11.396;2022-07-05T12:23:10;95937.78;;;28.78;24.31
48563;BME280;34981;49.104;11.396;2022-07-05T12:25:38;95934.59;;;28.76;25.03
48563;BME280;34981;49.104;11.396;2022-07-05T12:28:05;95942.50;;;28.77;25.10
48563;BME280;34981;49.104;11.396;2022-07-05T12:30:36;95928.31;;;28.82;23.79
48563;BME280;34981;49.104;11.396;2022-07-05T12:35:31;95933.44;;;28.84;24.50
48563;BME280;34981;49.104;11.396;2022-07-05T12:38:17;95935.38;;;28.80;25.28
48563;BME280;34981;49.104;11.396;2022-07-05T12:40:48;95923.03;;;28.66;25.32
48563;BME280;34981;49.104;11.396;2022-07-05T12:43:17;95931.69;;;28.58;26.01
48563;BME280;34981;49.104;11.396;2022-07-05T12:45:58;95939.19;;;28.54;25.37
48563;BME280;34981;49.104;11.396;2022-07-05T12:48:32;95928.06;;;28.47;25.28
48563;BME280;34981;49.104;11.396;2022-07-05T12:51:00;95920.97;;;28.49;25.66
48563;BME280;34981;49.104;11.396;2022-07-05T12:53:48;95919.88;;;28.64;25.47
48563;BME280;34981;49.104;11.396;2022-07-05T12:56:35;95920.69;;;28.72;25.57
48563;BME280;34981;49.104;11.396;2022-07-05T12:59:56;95930.09;;;28.53;26.63
48563;BME280;34981;49.104;11.396;2022-07-05T13:05:23;95919.66;;;28.91;25.26
48563;BME280;34981;49.104;11.396;2022-07-05T13:07:51;95920.00;;;28.82;24.98
48563;BME280;34981;49.104;11.396;2022-07-05T13:10:21;95928.56;;;28.66;25.39
48563;BME280;34981;49.104;11.396;2022-07-05T13:12:49;95923.88;;;28.74;25.30
48563;BME280;34981;49.104;11.396;2022-07-05T13:15:17;95925.69;;;28.45;25.64
48563;BME280;34981;49.104;11.396;2022-07-05T13:17:44;95928.16;;;28.61;26.03
48563;BME280;34981;49.104;11.396;2022-07-05T13:20:18;95924.63;;;28.67;26.16
48563;BME280;34981;49.104;11.396;2022-07-05T13:22:47;95924.38;;;28.25;26.94
48563;BME280;34981;49.104;11.396;2022-07-05T13:25:14;95924.38;;;28.25;26.47
48563;BME280;34981;49.104;11.396;2022-07-05T13:27:41;95923.53;;;28.21;26.88
48563;BME280;34981;49.104;11.396;2022-07-05T13:30:09;95929.47;;;28.23;26.64
48563;BME280;34981;49.104;11.396;2022-07-05T13:32:36;95926.16;;;28.03;26.64
48563;BME280;34981;49.104;11.396;2022-07-05T13:35:04;95919.88;;;28.10;26.09
48563;BME280;34981;49.104;11.396;2022-07-05T13:37:31;95922.66;;;28.13;26.48
48563;BME280;34981;49.104;11.396;2022-07-05T13:39:58;95909.00;;;28.31;26.72
48563;BME280;34981;49.104;11.396;2022-07-05T13:42:25;95912.91;;;28.23;27.12